PWSweather.com
Personal Weather Stations
Station Observations

YeovilGB

Lat: 50.949, Lon: -2.627

Elevation: 70

Station Type: Vantage Pro

http://www.yeovil-weather.me.uk/

High Low Average
Temperature 48.4°F9.1°C 42.6°F5.9°C 45.8°F7.7°C
Dew Point 46.7°F8.2°C 41.3°F5.2°C 44.3°F6.8°C
Winds 6.9 mph 11.1 kmh Calm Calm 1.0 mph ESE1.6 kmh ESE
Wind Gusts 13.8 mph22.2 kmh -- 4.0 mph6.4 kmh
Humidity 97% 92% 94%
Pressure 29.36 in994.2 mb 29.19 in988.5 mb -
Precipitation 0.35 in8.9 mm - -
Hour Temp Dew Point Humidity Winds Wind Gusts Pressure Precip Precip Rate Daily Precip Total
12:00 AM 45.3°F7.4°C 44.2°F6.8°C 96% Calm Calm -- 29.36 in994.2 mb - 0.01 in0.3 mm 0.01 in0.3 mm
12:10 AM 45.3°F7.4°C 44.2°F6.8°C 96% Calm Calm -- 29.36 in994.2 mb - 0.00 in0.0 mm 0.01 in0.3 mm
12:20 AM 45.5°F7.5°C 44.4°F6.9°C 96% Calm Calm 2.3 mph3.7 kmh 29.36 in994.2 mb - 0.00 in0.0 mm 0.01 in0.3 mm
12:30 AM 45.6°F7.6°C 44.5°F6.9°C 96% Calm Calm -- 29.36 in994.2 mb - 0.00 in0.0 mm 0.01 in0.3 mm
12:40 AM 45.6°F7.6°C 44.5°F6.9°C 96% Calm Calm 5.8 mph9.3 kmh 29.36 in994.2 mb - 0.00 in0.0 mm 0.01 in0.3 mm
12:50 AM 45.4°F7.4°C 44.3°F6.8°C 96% Calm Calm 3.5 mph5.6 kmh 29.36 in994.2 mb - 0.00 in0.0 mm 0.01 in0.3 mm
01:00 AM 45.3°F7.4°C 44.0°F6.7°C 95% Calm Calm -- 29.35 in993.9 mb - 0.00 in0.0 mm 0.01 in0.3 mm
01:10 AM 45.2°F7.3°C 44.1°F6.7°C 96% 2.3 mph SE3.7 kmh SE 6.9 mph11.1 kmh 29.35 in993.9 mb - 0.00 in0.0 mm 0.01 in0.3 mm
01:20 AM 45.2°F7.3°C 43.8°F6.6°C 95% Calm Calm -- 29.35 in993.9 mb - 0.00 in0.0 mm 0.01 in0.3 mm
01:30 AM 45.1°F7.3°C 43.8°F6.6°C 95% Calm Calm -- 29.35 in993.9 mb - 0.00 in0.0 mm 0.01 in0.3 mm
01:40 AM 45.0°F7.2°C 43.7°F6.5°C 95% Calm Calm -- 29.35 in993.9 mb - 0.00 in0.0 mm 0.01 in0.3 mm
01:50 AM 44.9°F7.2°C 43.6°F6.4°C 95% Calm Calm -- 29.35 in993.9 mb - 0.00 in0.0 mm 0.01 in0.3 mm
02:00 AM 44.8°F7.1°C 43.4°F6.3°C 95% Calm Calm -- 29.35 in993.9 mb - 0.00 in0.0 mm 0.01 in0.3 mm
02:10 AM 44.7°F7.1°C 43.4°F6.3°C 95% Calm Calm -- 29.35 in993.9 mb - 0.00 in0.0 mm 0.01 in0.3 mm
02:20 AM 44.6°F7.0°C 43.3°F6.3°C 95% Calm Calm -- 29.34 in993.6 mb - 0.01 in0.3 mm 0.01 in0.3 mm
02:30 AM 44.6°F7.0°C 43.3°F6.3°C 95% Calm Calm -- 29.34 in993.6 mb - 0.00 in0.0 mm 0.01 in0.3 mm
02:40 AM 44.6°F7.0°C 43.2°F6.2°C 95% Calm Calm -- 29.34 in993.6 mb - 0.00 in0.0 mm 0.01 in0.3 mm
02:50 AM 44.4°F6.9°C 43.1°F6.2°C 95% Calm Calm -- 29.34 in993.6 mb - 0.00 in0.0 mm 0.01 in0.3 mm
03:00 AM 44.2°F6.8°C 42.6°F5.9°C 94% Calm Calm -- 29.34 in993.6 mb - 0.00 in0.0 mm 0.01 in0.3 mm
03:10 AM 43.9°F6.6°C 42.6°F5.9°C 95% Calm Calm -- 29.34 in993.6 mb - 0.00 in0.0 mm 0.01 in0.3 mm
03:20 AM 43.8°F6.6°C 42.4°F5.8°C 95% Calm Calm -- 29.34 in993.6 mb - 0.00 in0.0 mm 0.01 in0.3 mm
03:30 AM 43.7°F6.5°C 42.4°F5.8°C 95% Calm Calm 3.5 mph5.6 kmh 29.34 in993.6 mb - 0.00 in0.0 mm 0.01 in0.3 mm
03:40 AM 43.7°F6.5°C 42.4°F5.8°C 95% Calm Calm -- 29.34 in993.6 mb - 0.00 in0.0 mm 0.01 in0.3 mm
03:50 AM 43.7°F6.5°C 42.4°F5.8°C 95% Calm Calm -- 29.34 in993.6 mb - 0.00 in0.0 mm 0.01 in0.3 mm
04:00 AM 43.6°F6.4°C 41.9°F5.5°C 94% Calm Calm -- 29.33 in993.2 mb - 0.00 in0.0 mm 0.01 in0.3 mm
04:10 AM 43.3°F6.3°C 42.0°F5.6°C 95% Calm Calm -- 29.34 in993.6 mb - 0.00 in0.0 mm 0.01 in0.3 mm
04:20 AM 43.3°F6.3°C 42.0°F5.6°C 95% Calm Calm -- 29.34 in993.6 mb - 0.00 in0.0 mm 0.01 in0.3 mm
04:30 AM 43.2°F6.2°C 41.9°F5.5°C 95% Calm Calm -- 29.33 in993.2 mb - 0.00 in0.0 mm 0.01 in0.3 mm
04:40 AM 43.1°F6.2°C 41.8°F5.4°C 95% Calm Calm -- 29.33 in993.2 mb - 0.01 in0.3 mm 0.02 in0.5 mm
04:50 AM 43.1°F6.2°C 41.8°F5.4°C 95% Calm Calm -- 29.33 in993.2 mb - 0.00 in0.0 mm 0.02 in0.5 mm
05:00 AM 43.0°F6.1°C 41.6°F5.3°C 95% 1.2 mph SE1.9 kmh SE 3.5 mph5.6 kmh 29.33 in993.2 mb - 0.01 in0.3 mm 0.02 in0.5 mm
05:10 AM 43.5°F6.4°C 42.1°F5.6°C 95% Calm Calm -- 29.33 in993.2 mb - 0.00 in0.0 mm 0.02 in0.5 mm
05:20 AM 43.4°F6.3°C 42.1°F5.6°C 95% Calm Calm -- 29.33 in993.2 mb - 0.00 in0.0 mm 0.02 in0.5 mm
05:30 AM 43.2°F6.2°C 41.9°F5.5°C 95% Calm Calm -- 29.34 in993.6 mb - 0.00 in0.0 mm 0.02 in0.5 mm
05:40 AM 42.9°F6.1°C 41.6°F5.3°C 95% Calm Calm -- 29.34 in993.6 mb - 0.00 in0.0 mm 0.02 in0.5 mm
05:50 AM 42.6°F5.9°C 41.3°F5.2°C 95% Calm Calm -- 29.33 in993.2 mb - 0.00 in0.0 mm 0.02 in0.5 mm
06:00 AM 42.9°F6.1°C 41.6°F5.3°C 95% Calm Calm -- 29.33 in993.2 mb - 0.01 in0.3 mm 0.03 in0.8 mm
06:10 AM 43.2°F6.2°C 42.1°F5.6°C 96% 3.5 mph SE5.6 kmh SE 8.1 mph13.0 kmh 29.34 in993.6 mb - 0.00 in0.0 mm 0.03 in0.8 mm
06:20 AM 43.4°F6.3°C 42.1°F5.6°C 95% Calm Calm -- 29.33 in993.2 mb - 0.01 in0.3 mm 0.04 in1.0 mm
06:30 AM 43.6°F6.4°C 42.3°F5.7°C 95% Calm Calm -- 29.33 in993.2 mb - 0.00 in0.0 mm 0.04 in1.0 mm
06:40 AM 43.8°F6.6°C 42.5°F5.8°C 95% Calm Calm -- 29.33 in993.2 mb - 0.00 in0.0 mm 0.04 in1.0 mm
06:50 AM 44.0°F6.7°C 42.6°F5.9°C 95% 1.2 mph SE1.9 kmh SE 3.5 mph5.6 kmh 29.33 in993.2 mb - 0.00 in0.0 mm 0.04 in1.0 mm
07:00 AM 44.1°F6.7°C 42.7°F5.9°C 95% Calm Calm -- 29.32 in992.9 mb - 0.00 in0.0 mm 0.04 in1.0 mm
07:10 AM 44.1°F6.7°C 42.8°F6.0°C 95% Calm Calm -- 29.32 in992.9 mb - 0.00 in0.0 mm 0.04 in1.0 mm
07:20 AM 44.0°F6.7°C 42.7°F5.9°C 95% Calm Calm 4.6 mph7.4 kmh 29.33 in993.2 mb - 0.00 in0.0 mm 0.04 in1.0 mm
07:30 AM 43.9°F6.6°C 42.6°F5.9°C 95% Calm Calm -- 29.33 in993.2 mb - 0.01 in0.3 mm 0.05 in1.3 mm
07:40 AM 43.8°F6.6°C 42.5°F5.8°C 95% Calm Calm -- 29.33 in993.2 mb - 0.00 in0.0 mm 0.05 in1.3 mm
07:50 AM 43.9°F6.6°C 42.6°F5.9°C 95% Calm Calm 2.3 mph3.7 kmh 29.32 in992.9 mb - 0.00 in0.0 mm 0.05 in1.3 mm
08:00 AM 44.1°F6.7°C 42.5°F5.8°C 94% Calm Calm -- 29.32 in992.9 mb - 0.00 in0.0 mm 0.05 in1.3 mm
08:10 AM 44.1°F6.7°C 42.5°F5.8°C 94% 1.2 mph E1.9 kmh E 2.3 mph3.7 kmh 29.33 in993.2 mb - 0.00 in0.0 mm 0.05 in1.3 mm
08:20 AM 44.1°F6.7°C 42.5°F5.8°C 94% Calm Calm -- 29.33 in993.2 mb - 0.00 in0.0 mm 0.05 in1.3 mm
08:30 AM 43.9°F6.6°C 42.3°F5.7°C 94% Calm Calm 2.3 mph3.7 kmh 29.33 in993.2 mb - 0.00 in0.0 mm 0.05 in1.3 mm
08:50 AM 44.4°F6.9°C 43.1°F6.2°C 95% Calm Calm -- 29.33 in993.2 mb - 0.00 in0.0 mm 0.05 in1.3 mm
09:00 AM 44.7°F7.1°C 43.1°F6.2°C 94% 3.5 mph SE5.6 kmh SE 8.1 mph13.0 kmh 29.34 in993.6 mb - 0.02 in0.5 mm 0.06 in1.5 mm
09:10 AM 44.8°F7.1°C 43.2°F6.2°C 94% 1.2 mph SE1.9 kmh SE 1.2 mph1.9 kmh 29.33 in993.2 mb - 0.02 in0.5 mm 0.07 in1.8 mm
09:20 AM 44.7°F7.1°C 43.1°F6.2°C 94% Calm Calm 2.3 mph3.7 kmh 29.33 in993.2 mb - 0.00 in0.0 mm 0.07 in1.8 mm
09:30 AM 44.6°F7.0°C 43.0°F6.1°C 94% 1.2 mph ESE1.9 kmh ESE 5.8 mph9.3 kmh 29.33 in993.2 mb - 0.00 in0.0 mm 0.07 in1.8 mm
09:40 AM 44.4°F6.9°C 42.8°F6.0°C 94% 2.3 mph ESE3.7 kmh ESE 4.6 mph7.4 kmh 29.32 in992.9 mb - 0.00 in0.0 mm 0.07 in1.8 mm
09:50 AM 44.3°F6.8°C 42.7°F5.9°C 94% 2.3 mph SE3.7 kmh SE 4.6 mph7.4 kmh 29.33 in993.2 mb - 0.00 in0.0 mm 0.07 in1.8 mm
10:00 AM 44.4°F6.9°C 42.5°F5.8°C 93% 5.8 mph SE9.3 kmh SE 9.2 mph14.8 kmh 29.33 in993.2 mb - 0.01 in0.3 mm 0.08 in2.0 mm
10:10 AM 44.5°F6.9°C 42.9°F6.1°C 94% 1.2 mph SSE1.9 kmh SSE 2.3 mph3.7 kmh 29.33 in993.2 mb - 0.02 in0.5 mm 0.10 in2.5 mm
10:20 AM 44.5°F6.9°C 42.9°F6.1°C 94% 1.2 mph SSE1.9 kmh SSE 5.8 mph9.3 kmh 29.34 in993.6 mb - 0.02 in0.5 mm 0.12 in3.0 mm
10:30 AM 44.3°F6.8°C 42.7°F5.9°C 94% Calm Calm 4.6 mph7.4 kmh 29.33 in993.2 mb - 0.02 in0.5 mm 0.14 in3.6 mm
10:40 AM 44.1°F6.7°C 42.5°F5.8°C 94% Calm Calm -- 29.32 in992.9 mb - 0.03 in0.8 mm 0.17 in4.3 mm
10:50 AM 44.1°F6.7°C 42.5°F5.8°C 94% Calm Calm 3.5 mph5.6 kmh 29.32 in992.9 mb - 0.01 in0.3 mm 0.17 in4.3 mm
11:00 AM 44.2°F6.8°C 42.8°F6.0°C 95% 1.2 mph SE1.9 kmh SE 4.6 mph7.4 kmh 29.33 in993.2 mb - 0.00 in0.0 mm 0.17 in4.3 mm
11:10 AM 44.1°F6.7°C 42.8°F6.0°C 95% 6.9 mph SE11.1 kmh SE 10.4 mph16.7 kmh 29.33 in993.2 mb - 0.01 in0.3 mm 0.17 in4.3 mm
11:20 AM 44.1°F6.7°C 42.8°F6.0°C 95% 6.9 mph S11.1 kmh S 11.5 mph18.5 kmh 29.32 in992.9 mb - 0.02 in0.5 mm 0.19 in4.8 mm
11:30 AM 44.4°F6.9°C 43.1°F6.2°C 95% 2.3 mph S3.7 kmh S 10.4 mph16.7 kmh 29.32 in992.9 mb - 0.02 in0.5 mm 0.21 in5.3 mm
11:40 AM 44.5°F6.9°C 43.2°F6.2°C 95% Calm Calm 6.9 mph11.1 kmh 29.31 in992.6 mb - 0.02 in0.5 mm 0.22 in5.6 mm
11:50 AM 44.5°F6.9°C 43.2°F6.2°C 95% Calm Calm -- 29.31 in992.6 mb - 0.02 in0.5 mm 0.24 in6.1 mm
12:00 PM 44.5°F6.9°C 43.2°F6.2°C 95% Calm Calm -- 29.30 in992.2 mb - 0.01 in0.3 mm 0.25 in6.4 mm
12:10 PM 44.5°F6.9°C 43.2°F6.2°C 95% Calm Calm -- 29.30 in992.2 mb - 0.00 in0.0 mm 0.25 in6.4 mm
12:20 PM 44.4°F6.9°C 43.1°F6.2°C 95% Calm Calm -- 29.29 in991.9 mb - 0.01 in0.3 mm 0.26 in6.6 mm
12:30 PM 44.4°F6.9°C 43.1°F6.2°C 95% Calm Calm -- 29.29 in991.9 mb - 0.01 in0.3 mm 0.27 in6.9 mm
12:40 PM 44.4°F6.9°C 43.1°F6.2°C 95% Calm Calm -- 29.29 in991.9 mb - 0.01 in0.3 mm 0.28 in7.1 mm
12:50 PM 44.4°F6.9°C 43.3°F6.3°C 96% Calm Calm -- 29.28 in991.5 mb - 0.01 in0.3 mm 0.28 in7.1 mm
01:00 PM 44.6°F7.0°C 43.6°F6.4°C 96% Calm Calm -- 29.28 in991.5 mb - 0.00 in0.0 mm 0.28 in7.1 mm
01:10 PM 45.4°F7.4°C 44.3°F6.8°C 96% Calm Calm -- 29.26 in990.9 mb - 0.01 in0.3 mm 0.29 in7.4 mm
01:20 PM 46.0°F7.8°C 44.9°F7.2°C 96% 1.2 mph E1.9 kmh E 1.2 mph1.9 kmh 29.26 in990.9 mb - 0.00 in0.0 mm 0.29 in7.4 mm
01:30 PM 46.5°F8.1°C 45.7°F7.6°C 97% 2.3 mph ESE3.7 kmh ESE 6.9 mph11.1 kmh 29.26 in990.9 mb - 0.00 in0.0 mm 0.29 in7.4 mm
01:40 PM 46.9°F8.3°C 46.1°F7.8°C 97% 2.3 mph ESE3.7 kmh ESE 11.5 mph18.5 kmh 29.25 in990.5 mb - 0.00 in0.0 mm 0.29 in7.4 mm
01:50 PM 47.3°F8.5°C 46.2°F7.9°C 96% 1.2 mph SE1.9 kmh SE 9.2 mph14.8 kmh 29.25 in990.5 mb - 0.00 in0.0 mm 0.29 in7.4 mm
02:00 PM 47.3°F8.5°C 46.2°F7.9°C 96% 1.2 mph ESE1.9 kmh ESE 5.8 mph9.3 kmh 29.26 in990.9 mb - 0.01 in0.3 mm 0.30 in7.6 mm
02:10 PM 47.2°F8.4°C 46.1°F7.8°C 96% Calm Calm 1.2 mph1.9 kmh 29.26 in990.9 mb - 0.00 in0.0 mm 0.30 in7.6 mm
02:20 PM 47.0°F8.3°C 45.6°F7.6°C 95% 2.3 mph ESE3.7 kmh ESE 10.4 mph16.7 kmh 29.26 in990.9 mb - 0.01 in0.3 mm 0.31 in7.9 mm
02:30 PM 47.0°F8.3°C 45.6°F7.6°C 95% Calm Calm 11.5 mph18.5 kmh 29.26 in990.9 mb - 0.00 in0.0 mm 0.31 in7.9 mm
02:40 PM 47.0°F8.3°C 45.7°F7.6°C 95% 1.2 mph E1.9 kmh E 6.9 mph11.1 kmh 29.25 in990.5 mb - 0.00 in0.0 mm 0.31 in7.9 mm
02:50 PM 47.3°F8.5°C 46.2°F7.9°C 96% Calm Calm 3.5 mph5.6 kmh 29.25 in990.5 mb - 0.00 in0.0 mm 0.31 in7.9 mm
03:00 PM 47.5°F8.6°C 46.4°F8.0°C 96% 2.3 mph SE3.7 kmh SE 8.1 mph13.0 kmh 29.25 in990.5 mb - 0.00 in0.0 mm 0.31 in7.9 mm
03:10 PM 47.7°F8.7°C 46.3°F7.9°C 95% Calm Calm -- 29.25 in990.5 mb - 0.00 in0.0 mm 0.31 in7.9 mm
03:20 PM 47.9°F8.8°C 46.5°F8.1°C 95% 1.2 mph ESE1.9 kmh ESE 11.5 mph18.5 kmh 29.25 in990.5 mb - 0.00 in0.0 mm 0.31 in7.9 mm
03:30 PM 48.0°F8.9°C 46.6°F8.1°C 95% 1.2 mph ESE1.9 kmh ESE 10.4 mph16.7 kmh 29.24 in990.2 mb - 0.00 in0.0 mm 0.31 in7.9 mm
03:40 PM 48.1°F8.9°C 46.7°F8.2°C 95% 3.5 mph ESE5.6 kmh ESE 11.5 mph18.5 kmh 29.25 in990.5 mb - 0.00 in0.0 mm 0.31 in7.9 mm
03:50 PM 48.1°F8.9°C 46.5°F8.1°C 94% 4.6 mph SE7.4 kmh SE 12.7 mph20.4 kmh 29.24 in990.2 mb - 0.00 in0.0 mm 0.31 in7.9 mm
04:00 PM 48.2°F9.0°C 46.6°F8.1°C 94% 3.5 mph SE5.6 kmh SE 9.2 mph14.8 kmh 29.24 in990.2 mb - 0.00 in0.0 mm 0.31 in7.9 mm
04:10 PM 48.2°F9.0°C 46.6°F8.1°C 94% 2.3 mph E3.7 kmh E 8.1 mph13.0 kmh 29.23 in989.8 mb - 0.00 in0.0 mm 0.31 in7.9 mm
04:20 PM 48.2°F9.0°C 46.6°F8.1°C 94% 2.3 mph ESE3.7 kmh ESE 10.4 mph16.7 kmh 29.24 in990.2 mb - 0.00 in0.0 mm 0.31 in7.9 mm
04:30 PM 48.3°F9.1°C 46.4°F8.0°C 93% 1.2 mph ESE1.9 kmh ESE 6.9 mph11.1 kmh 29.23 in989.8 mb - 0.00 in0.0 mm 0.31 in7.9 mm
04:40 PM 48.4°F9.1°C 46.4°F8.0°C 93% 2.3 mph SE3.7 kmh SE 11.5 mph18.5 kmh 29.23 in989.8 mb - 0.00 in0.0 mm 0.31 in7.9 mm
04:50 PM 48.3°F9.1°C 46.4°F8.0°C 93% 3.5 mph SE5.6 kmh SE 8.1 mph13.0 kmh 29.23 in989.8 mb - 0.00 in0.0 mm 0.31 in7.9 mm
05:00 PM 48.4°F9.1°C 46.5°F8.1°C 93% 1.2 mph ESE1.9 kmh ESE 9.2 mph14.8 kmh 29.23 in989.8 mb - 0.00 in0.0 mm 0.31 in7.9 mm
05:10 PM 48.4°F9.1°C 46.5°F8.1°C 93% Calm Calm 2.3 mph3.7 kmh 29.23 in989.8 mb - 0.00 in0.0 mm 0.31 in7.9 mm
05:20 PM 48.3°F9.1°C 46.4°F8.0°C 93% 3.5 mph E5.6 kmh E 4.6 mph7.4 kmh 29.23 in989.8 mb - 0.00 in0.0 mm 0.31 in7.9 mm
05:30 PM 48.4°F9.1°C 46.5°F8.1°C 93% 3.5 mph ESE5.6 kmh ESE 10.4 mph16.7 kmh 29.23 in989.8 mb - 0.00 in0.0 mm 0.31 in7.9 mm
05:40 PM 48.4°F9.1°C 46.2°F7.9°C 92% 3.5 mph E5.6 kmh E 10.4 mph16.7 kmh 29.23 in989.8 mb - 0.00 in0.0 mm 0.31 in7.9 mm
05:50 PM 48.4°F9.1°C 46.2°F7.9°C 92% 3.5 mph E5.6 kmh E 6.9 mph11.1 kmh 29.23 in989.8 mb - 0.00 in0.0 mm 0.31 in7.9 mm
06:00 PM 48.3°F9.1°C 46.1°F7.8°C 92% 1.2 mph E1.9 kmh E 11.5 mph18.5 kmh 29.24 in990.2 mb - 0.00 in0.0 mm 0.31 in7.9 mm
06:10 PM 48.3°F9.1°C 46.1°F7.8°C 92% 1.2 mph E1.9 kmh E 13.8 mph22.2 kmh 29.24 in990.2 mb - 0.00 in0.0 mm 0.31 in7.9 mm
06:20 PM 48.3°F9.1°C 46.1°F7.8°C 92% 1.2 mph E1.9 kmh E 6.9 mph11.1 kmh 29.24 in990.2 mb - 0.00 in0.0 mm 0.31 in7.9 mm
06:30 PM 48.1°F8.9°C 45.9°F7.7°C 92% Calm Calm 5.8 mph9.3 kmh 29.24 in990.2 mb - 0.00 in0.0 mm 0.31 in7.9 mm
06:40 PM 48.1°F8.9°C 45.9°F7.7°C 92% 1.2 mph ENE1.9 kmh ENE 3.5 mph5.6 kmh 29.24 in990.2 mb - 0.00 in0.0 mm 0.31 in7.9 mm
06:50 PM 48.1°F8.9°C 45.9°F7.7°C 92% 5.8 mph E9.3 kmh E 10.4 mph16.7 kmh 29.24 in990.2 mb - 0.01 in0.3 mm 0.32 in8.1 mm
07:00 PM 47.9°F8.8°C 46.0°F7.8°C 93% 3.5 mph E5.6 kmh E 11.5 mph18.5 kmh 29.24 in990.2 mb - 0.00 in0.0 mm 0.32 in8.1 mm
07:10 PM 47.9°F8.8°C 46.0°F7.8°C 93% 1.2 mph SE1.9 kmh SE 5.8 mph9.3 kmh 29.24 in990.2 mb - 0.00 in0.0 mm 0.32 in8.1 mm
07:20 PM 47.8°F8.8°C 45.9°F7.7°C 93% 2.3 mph E3.7 kmh E 6.9 mph11.1 kmh 29.24 in990.2 mb - 0.01 in0.3 mm 0.32 in8.1 mm
07:30 PM 47.8°F8.8°C 45.9°F7.7°C 93% 1.2 mph E1.9 kmh E 8.1 mph13.0 kmh 29.24 in990.2 mb - 0.00 in0.0 mm 0.32 in8.1 mm
07:40 PM 47.8°F8.8°C 46.2°F7.9°C 94% Calm Calm 3.5 mph5.6 kmh 29.25 in990.5 mb - 0.01 in0.3 mm 0.33 in8.4 mm
07:50 PM 47.7°F8.7°C 46.1°F7.8°C 94% Calm Calm 4.6 mph7.4 kmh 29.25 in990.5 mb - 0.00 in0.0 mm 0.33 in8.4 mm
08:00 PM 47.5°F8.6°C 45.9°F7.7°C 94% 2.3 mph E3.7 kmh E 9.2 mph14.8 kmh 29.25 in990.5 mb - 0.00 in0.0 mm 0.33 in8.4 mm
08:10 PM 47.4°F8.6°C 45.5°F7.5°C 93% 1.2 mph E1.9 kmh E 4.6 mph7.4 kmh 29.25 in990.5 mb - 0.01 in0.3 mm 0.34 in8.6 mm
08:20 PM 47.1°F8.4°C 45.2°F7.3°C 93% 3.5 mph E5.6 kmh E 11.5 mph18.5 kmh 29.24 in990.2 mb - 0.00 in0.0 mm 0.34 in8.6 mm
08:30 PM 46.9°F8.3°C 45.0°F7.2°C 93% 1.2 mph NE1.9 kmh NE 9.2 mph14.8 kmh 29.24 in990.2 mb - 0.00 in0.0 mm 0.34 in8.6 mm
08:40 PM 46.9°F8.3°C 45.0°F7.2°C 93% 2.3 mph ENE3.7 kmh ENE 6.9 mph11.1 kmh 29.24 in990.2 mb - 0.00 in0.0 mm 0.34 in8.6 mm
08:50 PM 46.9°F8.3°C 45.0°F7.2°C 93% 2.3 mph NE3.7 kmh NE 13.8 mph22.2 kmh 29.23 in989.8 mb - 0.00 in0.0 mm 0.34 in8.6 mm
09:00 PM 47.0°F8.3°C 44.8°F7.1°C 92% 1.2 mph NE1.9 kmh NE 4.6 mph7.4 kmh 29.23 in989.8 mb - 0.00 in0.0 mm 0.34 in8.6 mm
09:10 PM 47.2°F8.4°C 45.0°F7.2°C 92% 1.2 mph ENE1.9 kmh ENE 4.6 mph7.4 kmh 29.23 in989.8 mb - 0.00 in0.0 mm 0.34 in8.6 mm
09:20 PM 47.3°F8.5°C 45.3°F7.4°C 93% 1.2 mph NNE1.9 kmh NNE 4.6 mph7.4 kmh 29.23 in989.8 mb - 0.00 in0.0 mm 0.34 in8.6 mm
09:40 PM 47.6°F8.7°C 45.7°F7.6°C 93% 2.3 mph NE3.7 kmh NE 10.4 mph16.7 kmh 29.22 in989.5 mb - 0.00 in0.0 mm 0.34 in8.6 mm
09:50 PM 47.7°F8.7°C 45.8°F7.7°C 93% 2.3 mph NE3.7 kmh NE 8.1 mph13.0 kmh 29.22 in989.5 mb - 0.00 in0.0 mm 0.34 in8.6 mm
10:00 PM 47.7°F8.7°C 45.8°F7.7°C 93% Calm Calm 4.6 mph7.4 kmh 29.21 in989.2 mb - 0.00 in0.0 mm 0.34 in8.6 mm
10:10 PM 47.8°F8.8°C 45.8°F7.7°C 93% Calm Calm 6.9 mph11.1 kmh 29.21 in989.2 mb - 0.00 in0.0 mm 0.34 in8.6 mm
10:20 PM 47.7°F8.7°C 45.8°F7.7°C 93% Calm Calm -- 29.21 in989.2 mb - 0.00 in0.0 mm 0.34 in8.6 mm
10:30 PM 47.7°F8.7°C 45.8°F7.7°C 93% 1.2 mph E1.9 kmh E 5.8 mph9.3 kmh 29.20 in988.8 mb - 0.00 in0.0 mm 0.34 in8.6 mm
10:40 PM 47.6°F8.7°C 45.7°F7.6°C 93% 1.2 mph E1.9 kmh E 11.5 mph18.5 kmh 29.20 in988.8 mb - 0.01 in0.3 mm 0.35 in8.9 mm
10:50 PM 47.6°F8.7°C 45.7°F7.6°C 93% Calm Calm 2.3 mph3.7 kmh 29.20 in988.8 mb - 0.00 in0.0 mm 0.35 in8.9 mm
11:00 PM 47.7°F8.7°C 45.8°F7.7°C 93% 1.2 mph NE1.9 kmh NE 4.6 mph7.4 kmh 29.20 in988.8 mb - 0.00 in0.0 mm 0.35 in8.9 mm
11:10 PM 47.8°F8.8°C 46.2°F7.9°C 94% 2.3 mph E3.7 kmh E 11.5 mph18.5 kmh 29.20 in988.8 mb - 0.00 in0.0 mm 0.35 in8.9 mm
11:20 PM 48.0°F8.9°C 46.4°F8.0°C 94% 1.2 mph E1.9 kmh E 2.3 mph3.7 kmh 29.20 in988.8 mb - 0.01 in0.3 mm 0.35 in8.9 mm
11:30 PM 48.1°F8.9°C 46.5°F8.1°C 94% 1.2 mph E1.9 kmh E -- 29.19 in988.5 mb - 0.00 in0.0 mm 0.35 in8.9 mm
11:40 PM 48.1°F8.9°C 46.5°F8.1°C 94% 2.3 mph E3.7 kmh E 9.2 mph14.8 kmh 29.19 in988.5 mb - 0.00 in0.0 mm 0.35 in8.9 mm
11:50 PM 48.1°F8.9°C 46.7°F8.2°C 95% 1.2 mph ENE1.9 kmh ENE 8.1 mph13.0 kmh 29.19 in988.5 mb - 0.00 in0.0 mm 0.35 in8.9 mm